createdAt,value
2022-08-20T00:03:50.288Z,99799.67
2022-08-20T00:08:56.840Z,99792.33
2022-08-20T00:14:02.576Z,99795.73
2022-08-20T00:19:08.348Z,99793.65
2022-08-20T00:24:10.342Z,99800.27
2022-08-20T00:29:12.784Z,99805.61
2022-08-20T00:34:17.144Z,99812.67
2022-08-20T00:39:22.554Z,99809.09
2022-08-20T00:44:25.196Z,99800.52
2022-08-20T00:49:31.170Z,99810.95
2022-08-20T00:54:53.341Z,99813.13
2022-08-20T00:59:56.940Z,99815.73
2022-08-20T01:04:58.898Z,99820.11
2022-08-20T01:10:04.933Z,99826.56
2022-08-20T01:15:11.488Z,99829.59
2022-08-20T01:20:20.283Z,99835.30
2022-08-20T01:25:36.731Z,99842.36
2022-08-20T01:30:40.178Z,99840.61
2022-08-20T01:35:42.778Z,99836.52
2022-08-20T01:41:00.900Z,99823.88
2022-08-20T01:46:04.139Z,99815.11
2022-08-20T01:51:09.745Z,99806.48
2022-08-20T01:56:15.108Z,99804.66
2022-08-20T02:01:21.858Z,99801.95
2022-08-20T02:06:26.099Z,99794.85
2022-08-20T02:11:29.857Z,99795.55
2022-08-20T02:16:36.428Z,99793.94
2022-08-20T02:21:43.665Z,99788.88
2022-08-20T02:26:45.657Z,99785.17
2022-08-20T02:32:24.809Z,99778.19
2022-08-20T02:37:10.171Z,99772.00
2022-08-20T02:42:12.310Z,99769.47
2022-08-20T02:47:14.151Z,99759.70
2022-08-20T02:52:16.121Z,99761.48
2022-08-20T02:57:22.500Z,99763.23
2022-08-20T03:02:24.860Z,99755.21
2022-08-20T03:07:27.133Z,99749.55
2022-08-20T03:12:29.104Z,99738.27
2022-08-20T03:17:31.106Z,99731.39
2022-08-20T03:22:33.452Z,99731.98
2022-08-20T03:27:36.299Z,99753.20
2022-08-20T03:32:39.837Z,99786.27
2022-08-20T03:37:44.774Z,99802.08
2022-08-20T03:42:52.354Z,99801.36
2022-08-20T03:47:55.106Z,99799.39
2022-08-20T03:52:58.125Z,99785.16
2022-08-20T03:58:05.821Z,99782.30
2022-08-20T04:03:08.588Z,99765.84
2022-08-20T04:08:20.204Z,99765.88
2022-08-20T04:13:22.763Z,99765.29
2022-08-20T04:18:26.705Z,99764.90
2022-08-20T04:23:30.267Z,99761.39
2022-08-20T04:28:34.160Z,99775.19
2022-08-20T04:33:36.117Z,99783.02
2022-08-20T04:38:48.233Z,99796.20
2022-08-20T04:43:54.690Z,99813.08
2022-08-20T04:48:57.219Z,99817.22
2022-08-20T04:54:00.296Z,99813.23
2022-08-20T04:59:02.207Z,99807.19
2022-08-20T05:04:04.159Z,99811.71
2022-08-20T05:09:07.812Z,99815.88
2022-08-20T05:14:15.090Z,99810.19
2022-08-20T05:19:17.024Z,99816.60
2022-08-20T05:24:21.031Z,99823.44
2022-08-20T05:29:23.192Z,99818.79
2022-08-20T05:34:25.900Z,99817.54
2022-08-20T05:39:28.692Z,99816.66
2022-08-20T05:44:31.164Z,99810.65
2022-08-20T05:49:33.705Z,99802.52
2022-08-20T05:54:37.931Z,99806.31
2022-08-20T05:59:40.006Z,99804.70
2022-08-20T06:04:43.708Z,99813.95
2022-08-20T06:09:46.023Z,99817.81
2022-08-20T06:14:48.133Z,99822.17
2022-08-20T06:19:50.263Z,99819.34
2022-08-20T06:24:52.452Z,99819.58
2022-08-20T06:29:54.392Z,99822.95
2022-08-20T06:35:00.032Z,99823.91
2022-08-20T06:40:12.993Z,99822.85
2022-08-20T06:45:18.922Z,99824.48
2022-08-20T06:50:31.740Z,99827.98
2022-08-20T06:55:39.378Z,99830.42
2022-08-20T07:00:53.411Z,99839.05
2022-08-20T07:05:58.320Z,99839.33
2022-08-20T07:11:02.068Z,99828.88
2022-08-20T07:16:08.406Z,99830.42
2022-08-20T07:21:12.067Z,99835.32
2022-08-20T07:26:14.140Z,99835.69
2022-08-20T07:31:36.131Z,99836.70
2022-08-20T07:36:38.441Z,99828.76
2022-08-20T07:41:42.086Z,99826.27
2022-08-20T07:46:47.996Z,99838.34
2022-08-20T07:51:50.255Z,99842.43
2022-08-20T07:56:53.793Z,99838.09
2022-08-20T08:01:56.489Z,99838.11
2022-08-20T08:07:00.315Z,99840.45
2022-08-20T08:12:04.494Z,99839.08
2022-08-20T08:17:07.415Z,99843.84
2022-08-20T08:22:12.821Z,99853.20
2022-08-20T08:27:18.842Z,99859.47
2022-08-20T08:32:21.891Z,99858.88
2022-08-20T08:37:24.896Z,99862.41
2022-08-20T08:42:43.284Z,99857.80
2022-08-20T08:47:47.005Z,99855.32
2022-08-20T08:53:00.014Z,99859.67
2022-08-20T08:58:16.492Z,99852.88
2022-08-20T09:03:26.244Z,99846.80
2022-08-20T09:08:44.738Z,99847.73
2022-08-20T09:13:50.527Z,99854.91
2022-08-20T09:18:53.246Z,99850.61
2022-08-20T09:23:58.642Z,99854.35
2022-08-20T09:29:01.012Z,99854.89
2022-08-20T09:34:07.191Z,99857.20
2022-08-20T09:39:18.578Z,99857.84
2022-08-20T09:44:27.600Z,99855.78
2022-08-20T09:49:31.241Z,99853.92
2022-08-20T09:54:34.805Z,99856.70
2022-08-20T09:59:37.490Z,99855.61
2022-08-20T10:04:39.585Z,99854.98
2022-08-20T10:09:43.549Z,99852.17
2022-08-20T10:14:48.448Z,99850.52
2022-08-20T10:19:52.506Z,99851.77
2022-08-20T10:24:55.487Z,99856.26
2022-08-20T10:29:57.514Z,99854.73
2022-08-20T10:35:00.365Z,99855.77
2022-08-20T10:40:06.401Z,99853.94
2022-08-20T10:45:14.943Z,99861.98
2022-08-20T10:50:19.972Z,99863.89
2022-08-20T10:55:22.480Z,99863.97
2022-08-20T11:00:26.060Z,99866.44
2022-08-20T11:05:28.578Z,99867.96
2022-08-20T11:10:43.579Z,99868.98
2022-08-20T11:15:45.762Z,99865.67
2022-08-20T11:20:50.525Z,99863.27
2022-08-20T11:25:53.666Z,99864.44
2022-08-20T11:31:06.504Z,99856.61
2022-08-20T11:36:08.641Z,99856.48
2022-08-20T11:41:13.322Z,99852.27
2022-08-20T11:46:24.332Z,99856.81
2022-08-20T11:51:31.042Z,99855.56
2022-08-20T11:56:52.005Z,99843.73
2022-08-20T12:02:02.261Z,99832.05
2022-08-20T12:07:12.072Z,99831.40
2022-08-20T12:12:20.238Z,99825.32
2022-08-20T12:17:32.122Z,99823.02
2022-08-20T12:22:34.429Z,99822.21
2022-08-20T12:27:37.273Z,99818.39
2022-08-20T12:32:42.196Z,99816.42
2022-08-20T12:37:45.308Z,99815.67
2022-08-20T12:42:50.401Z,99815.27
2022-08-20T12:48:01.165Z,99818.30
2022-08-20T12:53:10.387Z,99808.55
2022-08-20T12:58:20.294Z,99801.60
2022-08-20T13:03:22.393Z,99795.67
2022-08-20T13:08:24.265Z,99792.21
2022-08-20T13:13:26.265Z,99797.86
2022-08-20T13:18:29.684Z,99790.27
2022-08-20T13:23:31.660Z,99784.05
2022-08-20T13:28:34.318Z,99777.02
2022-08-20T13:33:36.270Z,99777.02
2022-08-20T13:38:43.038Z,99767.22
2022-08-20T13:43:45.114Z,99763.48
2022-08-20T13:48:47.186Z,99758.10
2022-08-20T13:53:50.294Z,99758.22
2022-08-20T13:58:53.230Z,99758.89
2022-08-20T14:03:55.217Z,99754.85
2022-08-20T14:08:58.330Z,99750.55
2022-08-20T14:14:00.949Z,99753.48
2022-08-20T14:19:03.694Z,99777.77
2022-08-20T14:24:06.224Z,99787.64
2022-08-20T14:29:08.138Z,99783.96
2022-08-20T14:34:10.134Z,99781.85
2022-08-20T14:39:12.296Z,99791.09
2022-08-20T14:44:14.305Z,99794.80
2022-08-20T14:49:16.273Z,99786.85
2022-08-20T14:54:18.423Z,99791.83
2022-08-20T14:59:20.425Z,99798.02
2022-08-20T15:04:22.590Z,99802.00
2022-08-20T15:09:24.704Z,99805.61
2022-08-20T15:14:27.030Z,99809.15
2022-08-20T15:19:31.352Z,99825.14
2022-08-20T15:24:33.528Z,99843.02
2022-08-20T15:29:35.534Z,99855.55
2022-08-20T15:34:39.199Z,99859.33
2022-08-20T15:39:42.835Z,99871.08
2022-08-20T15:44:45.953Z,99875.15
2022-08-20T15:49:52.236Z,99884.69
2022-08-20T15:55:02.266Z,99883.57
2022-08-20T16:00:35.801Z,99880.29
2022-08-20T16:05:46.703Z,99876.63
2022-08-20T16:11:07.069Z,99878.15
2022-08-20T16:16:47.013Z,99891.67
2022-08-20T16:21:53.601Z,99890.38
2022-08-20T16:27:40.161Z,99891.91
2022-08-20T16:32:50.628Z,99883.53
2022-08-20T16:38:22.119Z,99885.73
2022-08-20T16:43:35.051Z,99880.39
2022-08-20T16:48:39.034Z,99889.28
2022-08-20T16:53:45.237Z,99900.09
2022-08-20T16:58:51.052Z,99897.71
2022-08-20T17:03:59.976Z,99897.38
2022-08-20T17:09:19.476Z,99904.70
2022-08-20T17:14:36.117Z,99922.30
2022-08-20T17:19:40.587Z,99929.30
2022-08-20T17:24:42.801Z,99930.40
2022-08-20T17:30:08.700Z,99932.10
2022-08-20T17:35:22.131Z,99919.83
2022-08-20T17:40:29.985Z,99910.16
2022-08-20T17:45:40.547Z,99910.02
2022-08-20T17:50:44.247Z,99919.57
2022-08-20T17:55:50.865Z,99937.73
2022-08-20T18:00:52.976Z,99950.35
2022-08-20T18:06:08.263Z,99956.25
2022-08-20T18:11:12.367Z,99955.52
2022-08-20T18:16:34.472Z,99952.04
2022-08-20T18:21:55.333Z,99960.20
2022-08-20T18:27:10.080Z,99961.75
2022-08-20T18:32:38.687Z,99963.37
2022-08-20T18:37:40.852Z,99962.44
2022-08-20T18:42:46.003Z,99967.58
2022-08-20T18:47:47.939Z,99971.73
2022-08-20T18:52:53.093Z,99973.92
2022-08-20T18:58:12.298Z,99979.05
2022-08-20T19:03:23.945Z,99985.77
2022-08-20T19:08:41.307Z,99983.79
2022-08-20T19:13:59.818Z,99977.83
2022-08-20T19:19:01.981Z,99976.05
2022-08-20T19:24:08.322Z,99972.56
2022-08-20T19:29:17.012Z,99975.35
2022-08-20T19:34:23.975Z,99977.08
2022-08-20T19:39:28.476Z,99977.10
2022-08-20T19:44:33.943Z,99970.52
2022-08-20T19:50:01.716Z,99968.57
2022-08-20T19:55:05.237Z,99967.51
2022-08-20T20:00:17.139Z,99963.02
2022-08-20T20:05:19.766Z,99966.42
2022-08-20T20:10:32.319Z,99963.52
2022-08-20T20:15:40.258Z,99958.24
2022-08-20T20:20:50.153Z,99951.22
2022-08-20T20:26:06.139Z,99933.21
2022-08-20T20:31:13.104Z,99923.05
2022-08-20T20:36:17.961Z,99925.83
2022-08-20T20:41:23.818Z,99934.73
2022-08-20T20:46:30.871Z,99929.04
2022-08-20T20:51:43.045Z,99932.23
2022-08-20T20:56:57.111Z,99933.30
2022-08-20T21:02:00.420Z,99938.19
2022-08-20T21:07:12.001Z,99935.69
2022-08-20T21:12:14.040Z,99932.58
2022-08-20T21:17:24.776Z,99934.76
2022-08-20T21:22:28.593Z,99934.08
2022-08-20T21:27:31.277Z,99928.27
2022-08-20T21:32:39.232Z,99926.50
2022-08-20T21:37:52.440Z,99926.14
2022-08-20T21:42:54.431Z,99930.40
2022-08-20T21:47:57.081Z,99941.47
2022-08-20T21:52:59.830Z,99944.45
2022-08-20T21:58:04.237Z,99944.38
2022-08-20T22:03:06.933Z,99940.80
2022-08-20T22:08:10.531Z,99940.83
2022-08-20T22:13:13.814Z,99946.80
2022-08-20T22:18:20.438Z,99955.16
2022-08-20T22:23:27.158Z,99944.06
2022-08-20T22:28:35.344Z,99935.31
2022-08-20T22:33:43.070Z,99936.44
2022-08-20T22:38:54.659Z,99941.70
2022-08-20T22:44:02.002Z,99943.93
2022-08-20T22:49:10.824Z,99930.09
2022-08-20T22:54:22.583Z,99922.73
2022-08-20T22:59:26.403Z,99913.11
2022-08-20T23:04:37.897Z,99910.16
2022-08-20T23:09:52.473Z,99922.37
2022-08-20T23:15:00.130Z,99926.67
2022-08-20T23:20:14.060Z,99927.08
2022-08-20T23:25:16.158Z,99925.90
2022-08-20T23:30:19.426Z,99925.98
2022-08-20T23:35:22.262Z,99924.78
2022-08-20T23:40:28.668Z,99917.55
2022-08-20T23:45:31.135Z,99917.98
2022-08-20T23:50:33.336Z,99922.70
2022-08-20T23:55:35.510Z,99929.09
